Tasman Mariner — VRWW8 — position and weather

sailwx.info

Track history (hours):
 
Tides and Currents Weather Stations Pressure Air Temp Water Temp Dewpoint Dewpoint Depression Visibility Wind Speed Wind Dir Waves Ship Positions

Tasman Mariner

Last reported at 2018-Jan-20 02:05 UTC. Time now 2018-Jan-23 14:09 UTC.
Position N 01°14' E 104°01'.

Length 184 m; beam 27 m; draft 10 m.

Type: Ship (hazmat cat C). MMSI: 477860000.

Date/timePositionNaut miles runAvg speedWind from/ knotsBaromVisibWave heightAir tempDewpointWater temp
2018-Jan-20 02:05N 01°14' E 104°01'114.1
2018-Jan-20 01:59N 01°14' E 104°00'714.7
2018-Jan-20 01:30N 01°12' E 103°53'612.9
2018-Jan-20 01:01N 01°10' E 103°47'612.8
2018-Jan-20 00:30N 01°05' E 103°43'713.6
2018-Jan-20 00:00N 01°04' E 103°36'815.0
2018-Jan-19 23:30N 01°08' E 103°29'1014.2
2018-Jan-19 22:48N 01°14' E 103°21'413.9
2018-Jan-19 22:29N 01°16' E 103°18'  
Track history (hours):
 
Tides and Currents Weather Stations Pressure Air Temp Water Temp Dewpoint Dewpoint Depression Visibility Wind Speed Wind Dir Waves Ship Positions

Tasman Mariner

Last reported at 2018-Jan-20 02:05 UTC. Time now 2018-Jan-23 14:09 UTC.
Position N 01°14' E 104°01'.

Length 184 m; beam 27 m; draft 10 m.

Type: Ship (hazmat cat C). MMSI: 477860000.

Date/timePositionNaut miles runAvg speedWind from/ knotsBaromVisibWave heightAir tempDewpointWater temp
2018-Jan-20 02:05N 01°14' E 104°01'114.1
2018-Jan-20 01:59N 01°14' E 104°00'714.7
2018-Jan-20 01:30N 01°12' E 103°53'612.9
2018-Jan-20 01:01N 01°10' E 103°47'612.8
2018-Jan-20 00:30N 01°05' E 103°43'713.6
2018-Jan-20 00:00N 01°04' E 103°36'815.0
2018-Jan-19 23:30N 01°08' E 103°29'1014.2
2018-Jan-19 22:48N 01°14' E 103°21'413.9
2018-Jan-19 22:29N 01°16' E 103°18'  

Dump ship's entire track history